createdAt,value
2023-10-02T00:01:18.439Z,4.78
2023-10-02T00:02:40.891Z,5.05
2023-10-02T00:03:43.988Z,5.85
2023-10-02T00:04:46.935Z,4.45
2023-10-02T00:05:52.223Z,4.70
2023-10-02T00:07:06.972Z,6.65
2023-10-02T00:08:26.364Z,4.68
2023-10-02T00:09:28.767Z,4.28
2023-10-02T00:10:31.677Z,4.82
2023-10-02T00:11:37.429Z,4.90
2023-10-02T00:12:39.905Z,4.90
2023-10-02T00:13:42.603Z,6.20
2023-10-02T00:14:44.979Z,3.70
2023-10-02T00:15:47.410Z,5.68
2023-10-02T00:17:02.876Z,4.18
2023-10-02T00:18:06.312Z,3.75
2023-10-02T00:19:19.855Z,5.28
2023-10-02T00:20:23.591Z,4.78
2023-10-02T00:21:27.898Z,4.78
2023-10-02T00:22:37.153Z,4.05
2023-10-02T00:23:59.564Z,4.97
2023-10-02T00:25:17.580Z,5.43
2023-10-02T00:26:20.080Z,5.28
2023-10-02T00:27:22.338Z,4.75
2023-10-02T00:28:31.945Z,6.22
2023-10-02T00:29:35.087Z,6.03
2023-10-02T00:30:38.519Z,6.95
2023-10-02T00:31:43.850Z,7.68
2023-10-02T00:32:49.257Z,4.57
2023-10-02T00:33:52.110Z,3.80
2023-10-02T00:34:55.056Z,4.25
2023-10-02T00:35:57.788Z,4.28
2023-10-02T00:37:15.049Z,5.70
2023-10-02T00:38:17.369Z,3.50
2023-10-02T00:39:26.337Z,4.75
2023-10-02T00:40:31.656Z,4.25
2023-10-02T00:41:34.532Z,4.63
2023-10-02T00:42:38.259Z,5.82
2023-10-02T00:43:46.952Z,5.63
2023-10-02T00:44:53.482Z,4.07
2023-10-02T00:46:00.510Z,4.32
2023-10-02T00:47:05.362Z,6.20
2023-10-02T00:48:26.731Z,5.18
2023-10-02T00:49:36.672Z,5.13
2023-10-02T00:50:50.477Z,5.55
2023-10-02T00:52:02.005Z,5.53
2023-10-02T00:53:06.816Z,4.40
2023-10-02T00:54:25.104Z,4.88
2023-10-02T00:55:33.786Z,5.87
2023-10-02T00:56:36.377Z,5.40
2023-10-02T00:57:42.729Z,3.58
2023-10-02T00:58:45.581Z,3.93
2023-10-02T00:59:48.555Z,4.40
2023-10-02T01:00:52.524Z,4.22
2023-10-02T01:01:57.814Z,4.87
2023-10-02T01:03:05.407Z,5.40
2023-10-02T01:04:11.903Z,4.28
2023-10-02T01:05:17.449Z,3.80
2023-10-02T01:06:23.206Z,4.80
2023-10-02T01:07:25.546Z,4.97
2023-10-02T01:08:49.108Z,3.50
2023-10-02T01:10:10.945Z,4.70
2023-10-02T01:11:15.778Z,3.90
2023-10-02T01:12:19.808Z,4.93
2023-10-02T01:13:25.703Z,3.93
2023-10-02T01:14:41.735Z,5.03
2023-10-02T01:16:52.371Z,5.35
2023-10-02T01:18:09.597Z,4.68
2023-10-02T01:19:12.612Z,3.73
2023-10-02T01:20:34.036Z,3.55
2023-10-02T01:21:39.096Z,4.10
2023-10-02T01:22:43.927Z,3.97
2023-10-02T01:24:13.074Z,4.50
2023-10-02T01:25:17.181Z,3.47
2023-10-02T01:26:20.660Z,4.90
2023-10-02T01:27:23.206Z,4.67
2023-10-02T01:28:50.587Z,4.83
2023-10-02T01:30:13.245Z,4.03
2023-10-02T01:31:32.356Z,5.20
2023-10-02T01:32:34.819Z,2.92
2023-10-02T01:33:37.063Z,4.55
2023-10-02T01:34:41.700Z,4.43
2023-10-02T01:35:49.446Z,4.78
2023-10-02T01:36:52.738Z,5.10
2023-10-02T01:37:56.778Z,3.83
2023-10-02T01:39:14.695Z,3.58
2023-10-02T01:40:35.006Z,4.20
2023-10-02T01:41:37.740Z,4.77
2023-10-02T01:42:40.410Z,4.35
2023-10-02T01:43:46.704Z,5.67
2023-10-02T01:44:56.649Z,4.57
2023-10-02T01:46:01.511Z,3.57
2023-10-02T01:47:05.754Z,7.57
2023-10-02T01:48:09.479Z,4.18
2023-10-02T01:49:25.539Z,4.83
2023-10-02T01:50:31.329Z,3.83
2023-10-02T01:51:37.110Z,3.93
2023-10-02T01:52:51.167Z,5.07
2023-10-02T01:53:58.846Z,5.38
2023-10-02T01:55:01.410Z,4.75
2023-10-02T01:56:11.432Z,4.70
2023-10-02T01:57:25.642Z,3.57
2023-10-02T01:58:29.069Z,3.90
2023-10-02T01:59:31.350Z,4.23
2023-10-02T02:00:36.130Z,5.93
2023-10-02T02:02:00.781Z,4.40
2023-10-02T02:03:19.521Z,4.13
2023-10-02T02:04:26.119Z,4.63
2023-10-02T02:05:31.620Z,3.87
2023-10-02T02:06:35.608Z,4.80
2023-10-02T02:07:37.836Z,4.55
2023-10-02T02:08:49.060Z,6.18
2023-10-02T02:09:51.355Z,5.40
2023-10-02T02:10:55.529Z,5.00
2023-10-02T02:12:10.024Z,4.30
2023-10-02T02:13:14.592Z,4.33
2023-10-02T02:14:20.944Z,5.22
2023-10-02T02:15:23.235Z,4.70
2023-10-02T02:16:35.291Z,4.87
2023-10-02T02:17:39.099Z,4.10
2023-10-02T02:18:43.604Z,4.73
2023-10-02T02:19:50.492Z,5.80
2023-10-02T02:20:59.922Z,4.70
2023-10-02T02:22:03.735Z,3.83
2023-10-02T02:23:09.013Z,4.70
2023-10-02T02:24:13.215Z,4.50
2023-10-02T02:25:15.553Z,4.60
2023-10-02T02:26:24.442Z,4.20
2023-10-02T02:27:27.160Z,4.43
2023-10-02T02:28:44.685Z,4.50
2023-10-02T02:29:51.490Z,4.80
2023-10-02T02:30:53.748Z,5.10
2023-10-02T02:31:56.648Z,4.37
2023-10-02T02:33:01.703Z,5.18
2023-10-02T02:34:10.181Z,3.63
2023-10-02T02:35:16.043Z,4.27
2023-10-02T02:36:23.233Z,5.93
2023-10-02T02:37:30.220Z,4.43
2023-10-02T02:38:34.521Z,4.53
2023-10-02T02:39:40.132Z,6.10
2023-10-02T02:40:42.913Z,3.57
2023-10-02T02:41:45.234Z,4.27
2023-10-02T02:42:51.830Z,5.32
2023-10-02T02:43:54.348Z,5.93
2023-10-02T02:44:56.684Z,4.03
2023-10-02T02:45:58.932Z,4.47
2023-10-02T02:47:01.476Z,4.07
2023-10-02T02:48:07.897Z,4.47
2023-10-02T02:49:12.204Z,5.73
2023-10-02T02:50:16.019Z,3.63
2023-10-02T02:51:23.098Z,4.03
2023-10-02T02:52:27.042Z,5.27
2023-10-02T02:53:33.142Z,3.23
2023-10-02T02:54:35.504Z,4.03
2023-10-02T02:55:37.744Z,4.87
2023-10-02T02:56:40.118Z,3.57
2023-10-02T02:57:47.161Z,4.03
2023-10-02T02:58:51.974Z,6.07
2023-10-02T03:00:16.473Z,4.90
2023-10-02T03:01:24.029Z,5.10
2023-10-02T03:02:28.068Z,3.87
2023-10-02T03:03:36.258Z,4.30
2023-10-02T03:04:39.734Z,5.30
2023-10-02T03:05:42.438Z,3.50
2023-10-02T03:06:45.182Z,5.85
2023-10-02T03:07:50.165Z,5.28
2023-10-02T03:08:53.858Z,4.73
2023-10-02T03:10:00.180Z,5.83
2023-10-02T03:11:07.752Z,4.37
2023-10-02T03:12:11.108Z,4.87
2023-10-02T03:13:19.661Z,6.40
2023-10-02T03:14:23.237Z,3.70
2023-10-02T03:15:44.061Z,5.63
2023-10-02T03:16:46.750Z,4.47
2023-10-02T03:17:52.601Z,4.87
2023-10-02T03:18:56.392Z,6.20
2023-10-02T03:20:01.809Z,3.87
2023-10-02T03:21:08.895Z,6.17
2023-10-02T03:22:11.477Z,4.53
2023-10-02T03:23:13.874Z,4.93
2023-10-02T03:24:20.159Z,5.83
2023-10-02T03:25:29.259Z,5.20
2023-10-02T03:26:32.152Z,3.83
2023-10-02T03:27:34.569Z,4.13
2023-10-02T03:28:36.825Z,6.10
2023-10-02T03:29:39.049Z,3.77
2023-10-02T03:30:41.749Z,4.53
2023-10-02T03:31:50.369Z,3.70
2023-10-02T03:32:53.339Z,4.93
2023-10-02T03:33:55.742Z,4.00
2023-10-02T03:35:03.988Z,3.53
2023-10-02T03:36:09.502Z,4.93
2023-10-02T03:37:11.841Z,4.50
2023-10-02T03:38:15.576Z,4.47
2023-10-02T03:39:36.887Z,4.90
2023-10-02T03:40:43.527Z,4.20
2023-10-02T03:41:50.000Z,4.77
2023-10-02T03:42:55.879Z,4.77
2023-10-02T03:43:58.282Z,3.93
2023-10-02T03:45:05.462Z,3.70
2023-10-02T03:46:08.020Z,5.70
2023-10-02T03:47:14.207Z,6.63
2023-10-02T03:48:16.694Z,4.93
2023-10-02T03:49:20.296Z,6.13
2023-10-02T03:50:25.497Z,3.67
2023-10-02T03:51:37.668Z,4.40
2023-10-02T03:52:42.801Z,5.03
2023-10-02T03:53:45.706Z,5.07
2023-10-02T03:54:50.356Z,6.20
2023-10-02T03:56:25.657Z,4.17
2023-10-02T03:57:46.584Z,4.23
2023-10-02T03:58:53.432Z,6.27
2023-10-02T03:59:55.804Z,4.07
2023-10-02T04:00:58.874Z,4.73
2023-10-02T04:02:20.301Z,5.10
2023-10-02T04:03:22.746Z,4.37
2023-10-02T04:04:25.991Z,4.00
2023-10-02T04:05:47.274Z,5.20
2023-10-02T04:06:54.732Z,4.37
2023-10-02T04:08:23.266Z,4.33
2023-10-02T04:09:26.489Z,4.80
2023-10-02T04:10:48.975Z,4.33
2023-10-02T04:12:05.465Z,4.07
2023-10-02T04:13:09.950Z,5.20
2023-10-02T04:14:18.928Z,4.97
2023-10-02T04:15:22.524Z,4.37
2023-10-02T04:16:30.768Z,5.37
2023-10-02T04:17:35.988Z,5.27
2023-10-02T04:18:47.416Z,5.50
2023-10-02T04:19:53.283Z,4.60
2023-10-02T04:21:02.982Z,5.20
2023-10-02T04:22:07.942Z,4.13
2023-10-02T04:23:22.344Z,4.13
2023-10-02T04:24:25.260Z,4.73
2023-10-02T04:25:36.296Z,4.73
2023-10-02T04:26:42.810Z,4.20
2023-10-02T04:27:45.098Z,5.23
2023-10-02T04:28:56.415Z,5.63
2023-10-02T04:30:22.358Z,4.57
2023-10-02T04:31:31.173Z,4.73
2023-10-02T04:32:33.546Z,5.90
2023-10-02T04:33:39.686Z,4.43
2023-10-02T04:34:52.087Z,4.17
2023-10-02T04:35:58.506Z,6.23
2023-10-02T04:37:14.023Z,5.80
2023-10-02T04:38:16.696Z,5.33
2023-10-02T04:39:37.194Z,4.00
2023-10-02T04:40:50.819Z,5.13
2023-10-02T04:42:11.074Z,6.00
2023-10-02T04:43:20.502Z,4.50
2023-10-02T04:44:22.880Z,4.20
2023-10-02T04:45:35.518Z,4.57
2023-10-02T04:46:37.816Z,4.47
2023-10-02T04:47:41.829Z,6.10
2023-10-02T04:48:47.089Z,4.00
2023-10-02T04:50:06.546Z,5.00
2023-10-02T04:51:10.411Z,5.13
2023-10-02T04:52:15.436Z,4.40
2023-10-02T04:53:17.870Z,5.87
2023-10-02T04:54:20.484Z,5.63
2023-10-02T04:55:42.915Z,4.23
2023-10-02T04:56:47.687Z,4.90
2023-10-02T04:57:55.533Z,6.20
2023-10-02T04:59:04.546Z,5.77
2023-10-02T05:00:25.786Z,5.80
2023-10-02T05:01:36.256Z,4.97
2023-10-02T05:02:40.408Z,6.27
2023-10-02T05:03:50.969Z,4.93
2023-10-02T05:04:58.142Z,4.47
2023-10-02T05:06:01.629Z,5.73
2023-10-02T05:07:05.708Z,4.90
2023-10-02T05:08:16.888Z,6.07
2023-10-02T05:09:22.323Z,4.47
2023-10-02T05:10:24.631Z,4.87
2023-10-02T05:11:28.039Z,5.00
2023-10-02T05:12:34.745Z,5.57
2023-10-02T05:13:56.892Z,5.53
2023-10-02T05:15:08.344Z,5.33
2023-10-02T05:16:14.400Z,7.13
2023-10-02T05:17:40.037Z,5.57
2023-10-02T05:18:48.817Z,4.70
2023-10-02T05:19:58.341Z,6.57
2023-10-02T05:21:05.386Z,3.97
2023-10-02T05:22:08.449Z,5.77
2023-10-02T05:23:12.034Z,6.47
2023-10-02T05:24:14.369Z,4.87
2023-10-02T05:25:19.525Z,3.67
2023-10-02T05:26:34.121Z,4.77
2023-10-02T05:27:39.351Z,5.67
2023-10-02T05:28:45.582Z,5.30
2023-10-02T05:29:48.060Z,6.67
2023-10-02T05:30:50.654Z,6.27
2023-10-02T05:31:53.066Z,4.33
2023-10-02T05:32:57.778Z,5.43
2023-10-02T05:34:02.138Z,5.70
2023-10-02T05:35:07.188Z,5.37
2023-10-02T05:36:10.442Z,5.00
2023-10-02T05:37:24.220Z,5.77
2023-10-02T05:38:29.902Z,4.53
2023-10-02T05:39:41.555Z,4.20
2023-10-02T05:40:48.751Z,3.93
2023-10-02T05:41:52.728Z,5.97
2023-10-02T05:43:01.670Z,5.03
2023-10-02T05:44:14.087Z,5.03
2023-10-02T05:45:18.522Z,8.23
2023-10-02T05:46:20.928Z,3.97
2023-10-02T05:47:25.435Z,4.20
2023-10-02T05:48:27.821Z,4.53
2023-10-02T05:49:31.179Z,6.73
2023-10-02T05:50:34.422Z,4.60
2023-10-02T05:51:49.020Z,4.53
2023-10-02T05:52:52.272Z,6.07
2023-10-02T05:53:54.790Z,4.87
2023-10-02T05:54:57.469Z,6.23
2023-10-02T05:56:11.729Z,5.17
2023-10-02T05:57:14.747Z,5.50
2023-10-02T05:58:21.583Z,9.20
2023-10-02T05:59:26.219Z,4.70
2023-10-02T06:00:37.053Z,5.23
2023-10-02T06:01:39.512Z,4.70
2023-10-02T06:03:00.772Z,9.27
2023-10-02T06:04:06.337Z,5.63
2023-10-02T06:05:09.636Z,5.03
2023-10-02T06:06:19.551Z,5.53
2023-10-02T06:07:43.231Z,7.33
2023-10-02T06:08:52.781Z,4.53
2023-10-02T06:09:55.025Z,9.80
2023-10-02T06:11:09.936Z,7.47
2023-10-02T06:12:16.355Z,7.13
2023-10-02T06:13:18.589Z,8.27
2023-10-02T06:14:23.644Z,5.60
2023-10-02T06:15:44.377Z,7.97
2023-10-02T06:16:48.843Z,5.90
2023-10-02T06:17:52.275Z,7.43
2023-10-02T06:19:04.116Z,8.77
2023-10-02T06:20:19.079Z,6.73
2023-10-02T06:21:21.803Z,6.23
2023-10-02T06:22:24.070Z,6.10
2023-10-02T06:23:26.439Z,4.20
2023-10-02T06:24:31.667Z,5.63
2023-10-02T06:25:33.971Z,9.03
2023-10-02T06:26:50.942Z,5.77
2023-10-02T06:27:54.904Z,4.87
2023-10-02T06:29:17.501Z,4.87
2023-10-02T06:30:20.132Z,5.30
2023-10-02T06:31:32.454Z,5.80
2023-10-02T06:32:34.946Z,7.57
2023-10-02T06:33:38.250Z,5.13
2023-10-02T06:34:44.723Z,5.73
2023-10-02T06:35:58.112Z,8.33
2023-10-02T06:37:09.160Z,7.00
2023-10-02T06:38:19.378Z,5.47
2023-10-02T06:39:23.048Z,6.07
2023-10-02T06:40:25.395Z,5.23
2023-10-02T06:41:29.407Z,5.10
2023-10-02T06:42:32.381Z,5.40
2023-10-02T06:43:34.736Z,6.23
2023-10-02T06:44:53.671Z,5.77
2023-10-02T06:46:15.366Z,4.07
2023-10-02T06:47:17.832Z,3.40
2023-10-02T06:48:21.732Z,4.73
2023-10-02T06:49:24.397Z,4.20
2023-10-02T06:50:32.040Z,6.20
2023-10-02T06:51:34.582Z,5.80
2023-10-02T06:52:36.861Z,7.80
2023-10-02T06:53:42.255Z,5.67
2023-10-02T06:54:47.336Z,4.63
2023-10-02T06:56:00.027Z,6.47
2023-10-02T06:57:12.806Z,5.37
2023-10-02T06:58:16.028Z,4.60
2023-10-02T06:59:18.592Z,4.77
2023-10-02T07:00:22.492Z,5.97
2023-10-02T07:01:29.372Z,7.07
2023-10-02T07:02:33.566Z,6.07
2023-10-02T07:03:40.561Z,5.77
2023-10-02T07:04:44.081Z,7.17
2023-10-02T07:05:47.306Z,4.63
2023-10-02T07:06:49.589Z,7.33
2023-10-02T07:08:00.816Z,4.80
2023-10-02T07:09:13.161Z,5.17
2023-10-02T07:10:15.894Z,5.07
2023-10-02T07:11:19.956Z,7.67
2023-10-02T07:12:29.132Z,6.00
2023-10-02T07:13:34.477Z,7.80
2023-10-02T07:14:39.703Z,5.67
2023-10-02T07:15:43.336Z,7.63
2023-10-02T07:16:48.904Z,5.60
2023-10-02T07:18:01.998Z,6.47
2023-10-02T07:19:07.968Z,5.47
2023-10-02T07:20:12.993Z,4.97
2023-10-02T07:21:17.742Z,5.13
2023-10-02T07:22:24.975Z,6.13
2023-10-02T07:23:30.703Z,6.73
2023-10-02T07:24:34.912Z,5.83
2023-10-02T07:25:37.354Z,4.63
2023-10-02T07:26:52.605Z,5.87
2023-10-02T07:27:58.440Z,6.37
2023-10-02T07:29:01.886Z,5.17
2023-10-02T07:30:06.108Z,5.83
2023-10-02T07:31:16.820Z,4.70
2023-10-02T07:32:24.031Z,5.83
2023-10-02T07:33:27.021Z,4.63
2023-10-02T07:34:29.302Z,6.77
2023-10-02T07:35:31.769Z,6.13
2023-10-02T07:36:45.581Z,6.57
2023-10-02T07:37:59.184Z,5.03
2023-10-02T07:39:01.923Z,4.73
2023-10-02T07:40:07.353Z,5.00
2023-10-02T07:41:28.442Z,4.10
2023-10-02T07:42:32.623Z,5.47
2023-10-02T07:43:35.254Z,5.13
2023-10-02T07:44:39.005Z,5.73
2023-10-02T07:45:42.253Z,6.93
2023-10-02T07:46:45.676Z,7.10
2023-10-02T07:48:06.467Z,5.00
2023-10-02T07:49:11.371Z,4.53
2023-10-02T07:50:25.266Z,3.73
2023-10-02T07:51:36.488Z,4.53
2023-10-02T07:52:39.970Z,4.83
2023-10-02T07:53:42.805Z,4.93
2023-10-02T07:54:49.848Z,4.77
2023-10-02T07:55:52.183Z,7.63
2023-10-02T07:56:55.710Z,6.60
2023-10-02T07:58:02.217Z,3.60
2023-10-02T07:59:05.514Z,4.53
2023-10-02T08:00:29.126Z,4.93
2023-10-02T08:01:35.570Z,6.60
2023-10-02T08:02:41.297Z,5.10
2023-10-02T08:03:44.287Z,5.87
2023-10-02T08:04:48.982Z,4.20
2023-10-02T08:05:52.536Z,4.17
2023-10-02T08:07:04.712Z,4.63
2023-10-02T08:08:20.083Z,4.77
2023-10-02T08:09:36.941Z,4.90
2023-10-02T08:10:50.609Z,3.97
2023-10-02T08:11:54.805Z,5.27
2023-10-02T08:12:58.704Z,3.73
2023-10-02T08:14:02.197Z,6.20
2023-10-02T08:15:27.556Z,4.67
2023-10-02T08:16:34.244Z,4.10
2023-10-02T08:17:36.632Z,3.97
2023-10-02T08:18:59.356Z,3.77
2023-10-02T08:20:17.056Z,5.13
2023-10-02T08:21:21.766Z,4.00
2023-10-02T08:22:26.093Z,6.03
2023-10-02T08:23:29.012Z,5.17
2023-10-02T08:24:31.856Z,7.07
2023-10-02T08:25:35.148Z,4.07
2023-10-02T08:26:41.562Z,4.50
2023-10-02T08:27:45.393Z,4.63
2023-10-02T08:28:48.068Z,4.10
2023-10-02T08:29:50.330Z,3.67
2023-10-02T08:31:01.164Z,5.27
2023-10-02T08:32:05.927Z,3.40
2023-10-02T08:33:35.785Z,4.57
2023-10-02T08:34:32.924Z,6.20
2023-10-02T08:35:38.267Z,5.63
2023-10-02T08:36:44.551Z,7.13
2023-10-02T08:37:47.317Z,4.87
2023-10-02T08:38:52.157Z,4.50
2023-10-02T08:39:57.525Z,4.33
2023-10-02T08:41:05.130Z,5.50
2023-10-02T08:42:12.440Z,4.10
2023-10-02T08:43:19.506Z,5.10
2023-10-02T08:44:23.705Z,7.83
2023-10-02T08:45:27.479Z,13.37
2023-10-02T08:46:32.433Z,3.17
2023-10-02T08:47:36.609Z,4.23
2023-10-02T08:48:38.921Z,5.47
2023-10-02T08:49:41.441Z,5.63
2023-10-02T08:50:48.021Z,5.60
2023-10-02T08:51:50.937Z,5.07
2023-10-02T08:52:54.140Z,4.93
2023-10-02T08:54:01.207Z,5.30
2023-10-02T08:55:46.008Z,5.72
2023-10-02T08:57:07.879Z,5.03
2023-10-02T08:58:23.544Z,4.20
2023-10-02T08:59:29.171Z,5.00
2023-10-02T09:00:32.083Z,5.30
2023-10-02T09:01:35.296Z,3.70
2023-10-02T09:02:41.722Z,4.17
2023-10-02T09:04:11.061Z,4.17
2023-10-02T09:05:14.635Z,5.13
2023-10-02T09:06:29.968Z,5.53
2023-10-02T09:08:02.337Z,3.87
2023-10-02T09:09:16.092Z,4.60
2023-10-02T09:10:26.662Z,4.47
2023-10-02T09:11:38.136Z,5.70
2023-10-02T09:12:51.236Z,3.17
2023-10-02T09:14:21.669Z,6.60
2023-10-02T09:15:36.371Z,6.13
2023-10-02T09:16:38.981Z,10.40
2023-10-02T09:17:46.428Z,6.07
2023-10-02T09:19:07.389Z,4.87
2023-10-02T09:20:10.207Z,9.10
2023-10-02T09:21:16.558Z,8.87
2023-10-02T09:22:21.909Z,5.37
2023-10-02T09:23:28.754Z,4.53
2023-10-02T09:24:31.321Z,5.13
2023-10-02T09:25:38.349Z,4.80
2023-10-02T09:26:44.427Z,7.17
2023-10-02T09:27:58.314Z,5.78
2023-10-02T09:29:03.029Z,6.30
2023-10-02T09:30:18.951Z,4.43
2023-10-02T09:31:25.941Z,4.53
2023-10-02T09:32:28.913Z,5.45
2023-10-02T09:33:45.642Z,3.23
2023-10-02T09:36:02.376Z,4.83
2023-10-02T09:37:01.347Z,3.70
2023-10-02T09:38:15.336Z,6.20
2023-10-02T09:39:37.865Z,5.77
2023-10-02T09:41:01.050Z,4.67
2023-10-02T09:42:08.327Z,6.28
2023-10-02T09:43:15.524Z,4.80
2023-10-02T09:44:22.898Z,5.63
2023-10-02T09:45:32.749Z,3.50
2023-10-02T09:46:36.829Z,5.30
2023-10-02T09:47:51.141Z,3.90
2023-10-02T09:49:21.036Z,3.90
2023-10-02T09:50:27.851Z,5.70
2023-10-02T09:52:29.947Z,5.35
2023-10-02T09:54:03.328Z,2.92
2023-10-02T09:55:13.704Z,3.58
2023-10-02T09:56:19.465Z,4.28
2023-10-02T09:57:26.921Z,4.38
2023-10-02T09:58:50.471Z,4.93
2023-10-02T09:59:56.111Z,4.40
2023-10-02T10:01:27.474Z,5.13
2023-10-02T10:02:29.997Z,3.83
2023-10-02T10:03:33.023Z,3.95
2023-10-02T10:05:01.819Z,5.07
2023-10-02T10:06:17.087Z,6.70
2023-10-02T10:07:39.350Z,4.80
2023-10-02T10:09:17.030Z,3.47
2023-10-02T10:10:51.020Z,3.25
2023-10-02T10:12:13.455Z,5.45
2023-10-02T10:13:47.355Z,5.55
2023-10-02T10:14:55.716Z,3.55
2023-10-02T10:16:24.849Z,6.63
2023-10-02T10:17:50.179Z,3.60
2023-10-02T10:19:07.434Z,4.10
2023-10-02T10:20:21.648Z,4.17
2023-10-02T10:21:59.470Z,4.55
2023-10-02T10:23:32.449Z,4.90
2023-10-02T10:25:00.118Z,4.23
2023-10-02T10:26:09.504Z,4.10
2023-10-02T10:27:11.916Z,4.00
2023-10-02T10:28:28.691Z,4.03
2023-10-02T10:30:06.546Z,5.80
2023-10-02T10:31:10.432Z,5.23
2023-10-02T10:32:20.480Z,4.57
2023-10-02T10:33:27.250Z,5.33
2023-10-02T10:35:13.612Z,3.10
2023-10-02T10:36:36.954Z,5.55
2023-10-02T10:37:49.426Z,5.10
2023-10-02T10:38:51.959Z,5.40
2023-10-02T10:39:55.914Z,3.97
2023-10-02T10:41:07.292Z,3.03
2023-10-02T10:42:10.748Z,4.15
2023-10-02T10:43:16.385Z,5.28
2023-10-02T10:44:23.677Z,5.50
2023-10-02T10:45:31.219Z,6.63
2023-10-02T10:46:33.923Z,3.22
2023-10-02T10:47:39.871Z,5.18
2023-10-02T10:48:42.244Z,4.20
2023-10-02T10:49:55.299Z,3.80
2023-10-02T10:50:58.738Z,3.80
2023-10-02T10:52:01.937Z,5.15
2023-10-02T10:53:24.511Z,4.88
2023-10-02T10:54:39.210Z,4.47
2023-10-02T10:55:56.360Z,6.60
2023-10-02T10:57:15.583Z,5.60
2023-10-02T10:58:34.644Z,3.92
2023-10-02T10:59:37.542Z,6.18
2023-10-02T11:00:42.248Z,7.03
2023-10-02T11:02:10.048Z,7.07
2023-10-02T11:03:21.338Z,7.65
2023-10-02T11:04:28.125Z,5.93
2023-10-02T11:05:36.189Z,7.38
2023-10-02T11:06:42.903Z,7.40
2023-10-02T11:07:48.777Z,6.53
2023-10-02T11:09:14.284Z,6.60
2023-10-02T11:10:24.748Z,8.85
2023-10-02T11:11:28.826Z,6.38
2023-10-02T11:12:41.091Z,8.45
2023-10-02T11:13:59.846Z,7.00
2023-10-02T11:15:02.403Z,7.07
2023-10-02T11:16:11.076Z,7.63
2023-10-02T11:17:30.282Z,7.38
2023-10-02T11:18:32.767Z,7.38
2023-10-02T11:19:47.539Z,10.55
2023-10-02T11:20:51.920Z,8.90
2023-10-02T11:22:20.278Z,9.20
2023-10-02T11:23:45.287Z,11.68
2023-10-02T11:24:56.512Z,9.18
2023-10-02T11:25:59.818Z,11.13
2023-10-02T11:27:08.086Z,10.55
2023-10-02T11:28:10.340Z,9.20
2023-10-02T11:29:22.136Z,10.93
2023-10-02T11:30:32.466Z,10.27
2023-10-02T11:31:37.112Z,10.00
2023-10-02T11:32:59.846Z,9.85
2023-10-02T11:34:31.654Z,10.60
2023-10-02T11:35:39.691Z,13.10
2023-10-02T11:36:53.739Z,10.30
2023-10-02T11:37:57.917Z,13.35
2023-10-02T11:39:00.391Z,13.77
2023-10-02T11:40:04.903Z,12.88
2023-10-02T11:41:07.423Z,12.07
2023-10-02T11:42:10.052Z,13.40
2023-10-02T11:43:12.488Z,12.00
2023-10-02T11:44:15.950Z,17.40
2023-10-02T11:45:18.701Z,18.60
2023-10-02T11:46:22.367Z,15.60
2023-10-02T11:47:27.797Z,16.13
2023-10-02T11:48:30.364Z,16.63
2023-10-02T11:49:32.633Z,18.80
2023-10-02T11:50:34.965Z,14.43
2023-10-02T11:51:37.632Z,11.50
2023-10-02T11:52:39.902Z,16.13
2023-10-02T11:53:42.175Z,11.50
2023-10-02T11:54:44.491Z,14.23
2023-10-02T11:55:46.944Z,17.20
2023-10-02T11:56:49.637Z,13.52
2023-10-02T11:57:54.705Z,11.02
2023-10-02T11:58:57.705Z,14.93
2023-10-02T12:00:09.218Z,16.33
2023-10-02T12:01:11.700Z,14.88
2023-10-02T12:02:14.962Z,16.25
2023-10-02T12:03:19.432Z,13.60
2023-10-02T12:04:21.909Z,14.90
2023-10-02T12:05:24.358Z,15.95
2023-10-02T12:06:27.718Z,17.23
2023-10-02T12:07:30.021Z,16.17
2023-10-02T12:08:35.038Z,14.20
2023-10-02T12:09:37.766Z,14.38
2023-10-02T12:10:40.605Z,14.35
2023-10-02T12:11:43.088Z,18.00
2023-10-02T12:12:48.924Z,17.75
2023-10-02T12:13:52.429Z,14.00
2023-10-02T12:14:56.053Z,15.63
2023-10-02T12:15:59.440Z,14.77
2023-10-02T12:17:01.973Z,14.30
2023-10-02T12:18:05.651Z,16.30
2023-10-02T12:19:11.383Z,16.33
2023-10-02T12:20:20.594Z,14.88
2023-10-02T12:21:23.359Z,16.10
2023-10-02T12:22:27.496Z,17.08
2023-10-02T12:23:30.017Z,17.02
2023-10-02T12:24:32.786Z,13.60
2023-10-02T12:25:37.508Z,14.43
2023-10-02T12:26:42.151Z,14.00
2023-10-02T12:27:45.320Z,14.13
2023-10-02T12:28:48.154Z,15.13
2023-10-02T12:29:51.910Z,13.63
2023-10-02T12:30:55.014Z,12.77
2023-10-02T12:32:02.173Z,15.15
2023-10-02T12:33:05.479Z,15.30
2023-10-02T12:34:07.973Z,15.68
2023-10-02T12:35:10.720Z,17.92
2023-10-02T12:36:18.509Z,14.93
2023-10-02T12:37:21.604Z,13.85
2023-10-02T12:38:25.533Z,15.13
2023-10-02T12:39:30.561Z,15.88
2023-10-02T12:40:35.102Z,16.80
2023-10-02T12:41:37.513Z,15.63
2023-10-02T12:42:39.838Z,16.88
2023-10-02T12:43:44.022Z,14.57
2023-10-02T12:44:46.340Z,15.38
2023-10-02T12:45:48.666Z,18.40
2023-10-02T12:46:54.061Z,14.85
2023-10-02T12:47:56.528Z,15.25
2023-10-02T12:49:00.211Z,14.77
2023-10-02T12:50:02.752Z,15.45
2023-10-02T12:51:10.850Z,15.73
2023-10-02T12:52:13.119Z,15.77
2023-10-02T12:53:15.520Z,19.88
2023-10-02T12:54:18.157Z,13.68
2023-10-02T12:55:22.510Z,19.10
2023-10-02T12:56:27.681Z,13.60
2023-10-02T12:57:30.048Z,13.65
2023-10-02T12:58:33.895Z,15.80
2023-10-02T12:59:36.433Z,15.45
2023-10-02T13:00:38.747Z,16.08
2023-10-02T13:01:42.198Z,17.35
2023-10-02T13:02:46.180Z,14.35
2023-10-02T13:03:49.148Z,15.70
2023-10-02T13:04:51.918Z,16.00
2023-10-02T13:05:55.551Z,15.07
2023-10-02T13:06:58.281Z,13.70
2023-10-02T13:08:00.777Z,17.58
2023-10-02T13:09:13.651Z,16.77
2023-10-02T13:10:16.226Z,17.27
2023-10-02T13:11:22.543Z,15.77
2023-10-02T13:12:25.242Z,19.08
2023-10-02T13:13:28.972Z,16.92
2023-10-02T13:14:32.345Z,18.60
2023-10-02T13:15:36.102Z,18.13
2023-10-02T13:16:39.725Z,15.82
2023-10-02T13:17:42.350Z,14.50
2023-10-02T13:18:45.441Z,20.30
2023-10-02T13:19:48.055Z,16.30
2023-10-02T13:20:55.291Z,15.93
2023-10-02T13:21:59.210Z,13.35
2023-10-02T13:23:03.363Z,18.73
2023-10-02T13:24:07.325Z,15.93
2023-10-02T13:25:13.201Z,13.32
2023-10-02T13:26:17.826Z,14.45
2023-10-02T13:27:20.956Z,14.57
2023-10-02T13:28:23.560Z,14.35
2023-10-02T13:29:26.023Z,16.73
2023-10-02T13:30:31.569Z,12.88
2023-10-02T13:31:33.955Z,14.45
2023-10-02T13:32:36.676Z,17.50
2023-10-02T13:33:41.964Z,15.10
2023-10-02T13:34:44.274Z,14.65
2023-10-02T13:35:50.738Z,17.88
2023-10-02T13:36:53.364Z,14.43
2023-10-02T13:37:56.073Z,16.50
2023-10-02T13:38:59.342Z,16.83
2023-10-02T13:40:02.131Z,14.52
2023-10-02T13:41:11.740Z,14.85
2023-10-02T13:42:15.556Z,13.98
2023-10-02T13:43:19.157Z,15.32
2023-10-02T13:44:22.566Z,17.15
2023-10-02T13:45:26.196Z,15.95
2023-10-02T13:46:28.782Z,14.98
2023-10-02T13:47:37.235Z,13.43
2023-10-02T13:48:40.645Z,13.63
2023-10-02T13:49:44.994Z,15.43
2023-10-02T13:51:01.045Z,14.10
2023-10-02T13:52:06.028Z,14.13
2023-10-02T13:53:09.354Z,12.82
2023-10-02T13:54:11.631Z,16.55
2023-10-02T13:55:28.103Z,15.02
2023-10-02T13:56:34.692Z,13.40
2023-10-02T13:57:37.526Z,15.70
2023-10-02T13:58:41.584Z,14.60
2023-10-02T13:59:44.805Z,16.08
2023-10-02T14:00:48.130Z,13.68
2023-10-02T14:01:50.700Z,19.23
2023-10-02T14:02:54.291Z,12.98
2023-10-02T14:03:57.691Z,13.90
2023-10-02T14:05:02.424Z,14.02
2023-10-02T14:06:09.665Z,17.40
2023-10-02T14:07:11.954Z,16.05
2023-10-02T14:08:14.578Z,15.70
2023-10-02T14:09:17.350Z,12.93
2023-10-02T14:10:20.210Z,15.43
2023-10-02T14:11:27.713Z,16.40
2023-10-02T14:12:30.466Z,15.13
2023-10-02T14:13:34.445Z,18.63
2023-10-02T14:14:37.287Z,18.35
2023-10-02T14:15:39.979Z,15.82
2023-10-02T14:16:42.740Z,18.63
2023-10-02T14:17:48.640Z,14.88
2023-10-02T14:18:56.751Z,16.00
2023-10-02T14:20:00.403Z,13.57
2023-10-02T14:21:06.723Z,16.65
2023-10-02T14:22:09.410Z,14.73
2023-10-02T14:23:12.031Z,17.52
2023-10-02T14:24:17.430Z,15.35
2023-10-02T14:25:25.051Z,14.77
2023-10-02T14:26:29.346Z,17.52
2023-10-02T14:27:31.626Z,17.35
2023-10-02T14:28:34.066Z,13.38
2023-10-02T14:29:36.374Z,14.77
2023-10-02T14:30:41.163Z,15.95
2023-10-02T14:31:45.396Z,15.43
2023-10-02T14:32:48.243Z,17.63
2023-10-02T14:33:52.250Z,15.00
2023-10-02T14:34:55.226Z,16.20
2023-10-02T14:35:58.974Z,17.27
2023-10-02T14:37:01.382Z,17.08
2023-10-02T14:38:04.790Z,20.08
2023-10-02T14:39:07.930Z,18.75
2023-10-02T14:40:20.950Z,16.92
2023-10-02T14:41:23.789Z,18.73
2023-10-02T14:42:26.095Z,15.77
2023-10-02T14:43:29.349Z,19.95
2023-10-02T14:44:32.009Z,15.13
2023-10-02T14:45:35.519Z,14.57
2023-10-02T14:46:41.143Z,16.70
2023-10-02T14:47:44.511Z,17.80
2023-10-02T14:48:48.104Z,20.30
2023-10-02T14:49:50.539Z,16.67
2023-10-02T14:50:55.860Z,18.20
2023-10-02T14:52:00.192Z,16.20
2023-10-02T14:53:03.266Z,18.75
2023-10-02T14:54:06.577Z,16.98
2023-10-02T14:55:10.799Z,19.42
2023-10-02T14:56:14.133Z,15.98